Time;durP1;ratioP1;P1;durP2;ratioP2;P2;SDS_P1;SDS_P2;PMS_P1;PMS_P2;Temp;Humidity;BMP_temperature;BMP_pressure;BME280_temperature;BME280_humidity;BME280_pressure;Samples;Min_cycle;Max_cycle;Signal;HPM_P1;HPM_P2
2021/03/02 00:01:04;;;;;;;63.27;32.10;;;;;;;;;;5060227;28;39966;-77
2021/03/02 00:03:32;;;;;;;68.57;33.17;;;;;;;;;;5052598;28;39376;-77
2021/03/02 00:06:00;;;;;;;65.60;31.83;;;;;;;;;;5056675;28;36029;-77
2021/03/02 00:08:28;;;;;;;61.53;30.27;;;;;;;;;;5072539;28;46939;-76
2021/03/02 00:11:03;;;;;;;66.50;32.83;;;;;;;;;;5056131;28;38879;-75
2021/03/02 00:13:30;;;;;;;70.50;32.73;;;;;;;;;;5056444;28;48601;-76
2021/03/02 00:16:01;;;;;;;72.47;33.87;;;;;;;;;;5071926;28;38460;-76
2021/03/02 00:18:28;;;;;;;63.73;31.20;;;;;;;;;;5056297;28;48321;-75
2021/03/02 00:21:03;;;;;;;77.20;33.53;;;;;;;;;;5059444;28;40994;-76
2021/03/02 00:23:33;;;;;;;67.57;32.70;;;;;;;;;;5053221;28;47213;-77
2021/03/02 00:26:01;;;;;;;72.33;32.77;;;;;;;;;;5073223;28;39791;-75
2021/03/02 00:28:27;;;;;;;70.57;33.23;;;;;;;;;;5053661;28;48589;-73
2021/03/02 00:30:55;;;;;;;69.47;33.33;;;;;;;;;;5053879;28;39422;-75
2021/03/02 00:33:22;;;;;;;83.00;35.23;;;;;;;;;;5047798;28;39131;-77
2021/03/02 00:35:48;;;;;;;69.27;32.97;;;;;;;;;;5067411;28;36974;-76
2021/03/02 00:38:15;;;;;;;73.20;35.57;;;;;;;;;;5055349;28;38930;-75
2021/03/02 00:40:41;;;;;;;76.13;35.13;;;;;;;;;;5052413;28;40731;-75
2021/03/02 00:43:08;;;;;;;78.97;36.07;;;;;;;;;;5062947;28;39152;-77
2021/03/02 00:45:34;;;;;;;78.27;34.33;;;;;;;;;;5046494;28;39986;-76
2021/03/02 00:48:01;;;;;;;72.67;33.10;;;;;;;;;;5054635;28;37065;-77
2021/03/02 00:50:28;;;;;;;67.10;32.63;;;;;;;;;;5053462;28;47488;-78
2021/03/02 00:52:55;;;;;;;73.23;34.00;;;;;;;;;;5064768;28;37776;-76
2021/03/02 00:55:21;;;;;;;78.33;34.40;;;;;;;;;;5069661;28;37025;-76
2021/03/02 00:57:47;;;;;;;71.37;34.23;;;;;;;;;;5056234;28;38881;-75
2021/03/02 01:00:14;;;;;;;64.93;32.03;;;;;;;;;;5052045;28;38957;-78
2021/03/02 01:02:40;;;;;;;71.53;34.50;;;;;;;;;;5057242;28;39576;-76
2021/03/02 01:05:08;;;;;;;65.37;32.00;;;;;;;;;;5056805;28;37892;-78
2021/03/02 01:07:35;;;;;;;80.70;36.77;;;;;;;;;;5076536;28;37789;-76
2021/03/02 01:10:01;;;;;;;66.47;32.27;;;;;;;;;;5050847;28;39189;-77
2021/03/02 01:12:29;;;;;;;80.57;34.87;;;;;;;;;;5045969;28;39489;-78
2021/03/02 01:14:56;;;;;;;70.53;34.50;;;;;;;;;;5063175;28;35816;-77
2021/03/02 01:17:22;;;;;;;62.73;32.20;;;;;;;;;;5046208;28;38408;-77
2021/03/02 01:19:49;;;;;;;73.83;35.77;;;;;;;;;;5049526;28;40085;-76
2021/03/02 01:22:15;;;;;;;85.57;38.97;;;;;;;;;;5052677;28;38844;-76
2021/03/02 01:24:42;;;;;;;73.03;34.53;;;;;;;;;;5058751;28;38780;-76
2021/03/02 01:27:08;;;;;;;79.63;35.90;;;;;;;;;;5053053;28;36827;-80
2021/03/02 01:29:35;;;;;;;64.00;32.10;;;;;;;;;;5050216;28;39953;-76
2021/03/02 01:32:01;;;;;;;67.50;32.63;;;;;;;;;;5061696;28;39282;-75
2021/03/02 01:34:28;;;;;;;80.50;36.93;;;;;;;;;;5042168;28;48177;-78
2021/03/02 01:36:54;;;;;;;67.50;32.57;;;;;;;;;;5050891;28;37726;-75
2021/03/02 01:39:21;;;;;;;72.67;33.77;;;;;;;;;;5051317;28;38542;-75
2021/03/02 01:41:51;;;;;;;65.97;32.57;;;;;;;;;;5047766;28;40271;-75
2021/03/02 01:44:17;;;;;;;75.30;34.40;;;;;;;;;;5045556;28;38487;-75
2021/03/02 01:46:44;;;;;;;71.50;32.37;;;;;;;;;;5050605;28;37669;-77
2021/03/02 01:49:11;;;;;;;67.80;33.37;;;;;;;;;;5057245;27;40308;-75
2021/03/02 01:51:37;;;;;;;65.67;32.30;;;;;;;;;;5063470;28;39284;-74
2021/03/02 01:54:04;;;;;;;60.57;31.20;;;;;;;;;;5069639;28;39132;-76
2021/03/02 01:56:30;;;;;;;73.93;34.40;;;;;;;;;;5076156;28;36715;-78
2021/03/02 01:58:56;;;;;;;71.37;34.00;;;;;;;;;;5075593;28;38979;-77
2021/03/02 02:01:23;;;;;;;66.83;31.90;;;;;;;;;;5074651;28;38036;-77
2021/03/02 02:03:59;;;;;;;65.60;32.20;;;;;;;;;;5073601;28;37909;-76
2021/03/02 02:06:44;;;;;;;64.73;31.20;;;;;;;;;;5070338;28;37415;-77
2021/03/02 02:09:28;;;;;;;68.07;33.17;;;;;;;;;;5068534;28;39597;-76
2021/03/02 02:11:55;;;;;;;71.77;33.33;;;;;;;;;;5069418;28;39331;-75
2021/03/02 02:14:26;;;;;;;72.10;34.77;;;;;;;;;;5070186;27;37875;-76
2021/03/02 02:16:55;;;;;;;75.87;33.67;;;;;;;;;;5073260;27;37193;-81
2021/03/02 02:19:34;;;;;;;75.13;33.07;;;;;;;;;;5066938;28;39849;-78
2021/03/02 02:22:19;;;;;;;68.10;34.20;;;;;;;;;;5068199;28;40187;-76
2021/03/02 02:25:04;;;;;;;72.40;35.60;;;;;;;;;;5083875;27;47327;-78
2021/03/02 02:27:32;;;;;;;71.13;34.17;;;;;;;;;;5070314;28;47829;-75
2021/03/02 02:29:59;;;;;;;83.30;36.50;;;;;;;;;;5075517;28;38632;-75
2021/03/02 02:32:27;;;;;;;101.17;39.60;;;;;;;;;;5076108;28;39157;-77
2021/03/02 02:34:55;;;;;;;74.50;35.00;;;;;;;;;;5080749;28;37880;-79
2021/03/02 02:37:21;;;;;;;75.57;35.03;;;;;;;;;;5068825;28;37087;-75
2021/03/02 02:39:48;;;;;;;79.07;36.23;;;;;;;;;;5073097;28;37974;-75
2021/03/02 02:42:16;;;;;;;90.03;38.43;;;;;;;;;;5068351;28;37339;-76
2021/03/02 02:44:43;;;;;;;87.00;37.57;;;;;;;;;;5074162;28;36387;-78
2021/03/02 02:47:09;;;;;;;70.83;35.00;;;;;;;;;;5069855;28;36543;-74
2021/03/02 02:49:36;;;;;;;71.03;34.33;;;;;;;;;;5077351;28;38352;-75
2021/03/02 02:52:03;;;;;;;68.17;35.00;;;;;;;;;;5072932;28;39190;-76
2021/03/02 02:54:29;;;;;;;78.63;36.60;;;;;;;;;;5080766;28;37149;-75
2021/03/02 02:56:57;;;;;;;102.93;39.10;;;;;;;;;;5088220;27;37410;-76
2021/03/02 02:59:25;;;;;;;83.77;35.83;;;;;;;;;;5082898;28;40573;-77
2021/03/02 03:02:01;;;;;;;76.70;36.50;;;;;;;;;;5093652;27;37577;-75
2021/03/02 03:04:38;;;;;;;79.33;36.03;;;;;;;;;;5079017;28;47175;-78
2021/03/02 03:07:06;;;;;;;87.73;37.93;;;;;;;;;;5079180;28;36135;-76
2021/03/02 03:09:33;;;;;;;93.37;38.93;;;;;;;;;;5081078;28;38158;-77
2021/03/02 03:12:06;;;;;;;85.77;36.67;;;;;;;;;;5078511;28;38665;-77
2021/03/02 03:14:35;;;;;;;88.23;38.00;;;;;;;;;;5078013;28;47105;-79
2021/03/02 03:17:02;;;;;;;83.10;35.57;;;;;;;;;;5081794;28;37595;-76
2021/03/02 03:19:29;;;;;;;82.17;37.33;;;;;;;;;;5078556;28;40080;-76
2021/03/02 03:21:56;;;;;;;78.20;34.60;;;;;;;;;;5083674;28;40094;-74
2021/03/02 03:24:23;;;;;;;83.33;38.30;;;;;;;;;;5076973;28;38849;-75
2021/03/02 03:26:50;;;;;;;79.07;35.77;;;;;;;;;;5095507;27;35960;-77
2021/03/02 03:29:18;;;;;;;78.17;36.23;;;;;;;;;;5078535;28;40033;-77
2021/03/02 03:31:45;;;;;;;87.10;36.70;;;;;;;;;;5102075;27;42173;-75
2021/03/02 03:34:13;;;;;;;92.50;39.50;;;;;;;;;;5075903;27;40069;-75
2021/03/02 03:36:40;;;;;;;90.83;37.23;;;;;;;;;;5076219;28;36923;-75
2021/03/02 03:39:06;;;;;;;92.50;38.47;;;;;;;;;;5075902;27;39117;-74
2021/03/02 03:41:33;;;;;;;88.43;37.43;;;;;;;;;;5074245;28;38673;-74
2021/03/02 03:44:00;;;;;;;97.40;39.00;;;;;;;;;;5074222;28;38423;-76
2021/03/02 03:46:26;;;;;;;90.97;39.17;;;;;;;;;;5079996;27;38343;-76
2021/03/02 03:48:53;;;;;;;75.83;34.20;;;;;;;;;;5072933;28;39068;-77
2021/03/02 03:51:21;;;;;;;91.83;38.37;;;;;;;;;;5074538;28;40040;-75
2021/03/02 03:53:48;;;;;;;81.53;36.50;;;;;;;;;;5069567;28;38869;-74
2021/03/02 03:56:15;;;;;;;77.27;35.97;;;;;;;;;;5057711;27;38247;-74
2021/03/02 03:58:42;;;;;;;85.83;36.17;;;;;;;;;;5058686;28;39194;-74
2021/03/02 04:01:09;;;;;;;88.70;39.13;;;;;;;;;;5056935;28;38722;-74
2021/03/02 04:03:36;;;;;;;86.43;36.70;;;;;;;;;;5065143;28;37013;-74
2021/03/02 04:06:03;;;;;;;88.50;37.33;;;;;;;;;;5058505;28;35680;-75
2021/03/02 04:08:30;;;;;;;87.83;38.57;;;;;;;;;;5051853;27;39039;-76
2021/03/02 04:10:56;;;;;;;90.47;38.50;;;;;;;;;;5059151;28;38073;-75
2021/03/02 04:13:23;;;;;;;79.50;36.57;;;;;;;;;;5052963;27;38379;-76
2021/03/02 04:15:49;;;;;;;94.00;37.70;;;;;;;;;;5062138;28;37125;-74
2021/03/02 04:18:16;;;;;;;81.73;36.27;;;;;;;;;;5048152;28;38651;-74
2021/03/02 04:20:44;;;;;;;84.50;36.83;;;;;;;;;;5048323;27;38292;-75
2021/03/02 04:23:10;;;;;;;87.43;37.57;;;;;;;;;;5060184;28;39051;-75
2021/03/02 04:25:37;;;;;;;111.60;41.87;;;;;;;;;;5064479;28;36588;-74
2021/03/02 04:28:04;;;;;;;88.80;37.20;;;;;;;;;;5078172;28;39034;-74
2021/03/02 04:30:31;;;;;;;84.97;36.17;;;;;;;;;;5070890;28;37634;-75
2021/03/02 04:32:57;;;;;;;89.50;37.83;;;;;;;;;;5054209;28;38098;-76
2021/03/02 04:35:24;;;;;;;107.33;41.97;;;;;;;;;;5055186;28;37317;-75
2021/03/02 04:37:50;;;;;;;82.63;37.70;;;;;;;;;;5055818;28;39968;-76
2021/03/02 04:40:16;;;;;;;124.13;45.07;;;;;;;;;;5053607;28;37485;-76
2021/03/02 04:42:44;;;;;;;90.10;38.10;;;;;;;;;;5069937;28;39806;-75
2021/03/02 04:45:11;;;;;;;94.50;38.83;;;;;;;;;;5052751;28;39875;-75
2021/03/02 04:47:38;;;;;;;85.27;37.83;;;;;;;;;;5071769;28;39206;-75
2021/03/02 04:50:05;;;;;;;91.13;38.57;;;;;;;;;;5060292;28;38350;-75
2021/03/02 04:52:31;;;;;;;94.00;40.03;;;;;;;;;;5063069;28;47369;-75
2021/03/02 04:54:58;;;;;;;99.63;40.33;;;;;;;;;;5070332;27;36357;-77
2021/03/02 04:57:25;;;;;;;94.60;40.03;;;;;;;;;;5054246;28;39818;-75
2021/03/02 04:59:51;;;;;;;90.10;37.73;;;;;;;;;;5079648;27;37880;-76
2021/03/02 05:02:17;;;;;;;104.63;41.03;;;;;;;;;;5074492;28;37439;-74
2021/03/02 05:04:44;;;;;;;96.67;38.30;;;;;;;;;;5081300;28;37715;-76
2021/03/02 05:07:11;;;;;;;92.93;39.37;;;;;;;;;;5072195;27;37931;-75
2021/03/02 05:09:37;;;;;;;100.37;41.67;;;;;;;;;;5072162;28;40203;-75
2021/03/02 05:12:04;;;;;;;87.07;37.90;;;;;;;;;;5069890;27;38980;-76
2021/03/02 05:14:30;;;;;;;70.30;34.73;;;;;;;;;;5069259;28;37431;-75
2021/03/02 05:16:57;;;;;;;92.53;37.67;;;;;;;;;;5072081;28;39622;-76
2021/03/02 05:19:23;;;;;;;80.93;36.73;;;;;;;;;;5077297;27;38820;-75
2021/03/02 05:21:50;;;;;;;102.53;40.63;;;;;;;;;;5078846;28;37577;-76
2021/03/02 05:24:16;;;;;;;82.60;36.00;;;;;;;;;;5072984;27;37837;-74
2021/03/02 05:26:42;;;;;;;95.73;38.50;;;;;;;;;;5069391;27;38839;-75
2021/03/02 05:29:09;;;;;;;97.10;39.70;;;;;;;;;;5076393;28;39005;-75
2021/03/02 05:31:35;;;;;;;74.97;35.37;;;;;;;;;;5073188;28;39538;-75
2021/03/02 05:34:02;;;;;;;84.43;36.63;;;;;;;;;;5075442;28;38297;-75
2021/03/02 05:36:29;;;;;;;95.63;38.23;;;;;;;;;;5082333;27;39961;-77
2021/03/02 05:38:55;;;;;;;91.80;37.97;;;;;;;;;;5079911;28;39113;-75
2021/03/02 05:41:23;;;;;;;89.43;38.87;;;;;;;;;;5084092;27;38558;-75
2021/03/02 05:43:49;;;;;;;93.63;38.37;;;;;;;;;;5077653;27;37130;-75
2021/03/02 05:46:16;;;;;;;111.60;41.33;;;;;;;;;;5079177;28;39757;-77
2021/03/02 05:48:43;;;;;;;79.23;36.30;;;;;;;;;;5077518;28;38904;-74
2021/03/02 05:51:10;;;;;;;81.10;36.57;;;;;;;;;;5070524;28;38038;-74
2021/03/02 05:53:39;;;;;;;120.93;43.23;;;;;;;;;;5069305;28;38739;-75
2021/03/02 05:56:09;;;;;;;122.53;43.53;;;;;;;;;;5070736;28;39924;-75
2021/03/02 05:58:36;;;;;;;88.13;37.07;;;;;;;;;;5078808;28;40221;-75
2021/03/02 06:01:03;;;;;;;88.83;36.30;;;;;;;;;;5085204;27;38428;-75
2021/03/02 06:03:29;;;;;;;88.70;39.23;;;;;;;;;;5075785;28;37484;-76
2021/03/02 06:05:56;;;;;;;90.27;37.40;;;;;;;;;;5071443;28;38657;-75
2021/03/02 06:08:22;;;;;;;92.33;39.03;;;;;;;;;;5063267;28;39072;-74
2021/03/02 06:10:49;;;;;;;85.60;38.23;;;;;;;;;;5066905;28;41383;-76
2021/03/02 06:13:24;;;;;;;88.57;38.70;;;;;;;;;;5071014;28;39512;-76
2021/03/02 06:15:55;;;;;;;100.90;42.27;;;;;;;;;;5072187;28;40656;-76
2021/03/02 06:18:22;;;;;;;98.23;40.63;;;;;;;;;;5072328;28;41966;-74
2021/03/02 06:20:48;;;;;;;101.10;40.40;;;;;;;;;;5069720;28;38596;-74
2021/03/02 06:23:24;;;;;;;103.97;41.53;;;;;;;;;;5074271;27;36516;-73
2021/03/02 06:25:51;;;;;;;85.23;36.63;;;;;;;;;;5074230;28;39818;-75
2021/03/02 06:28:35;;;;;;;80.00;35.37;;;;;;;;;;5072703;27;39611;-74
2021/03/02 06:31:02;;;;;;;85.03;35.23;;;;;;;;;;5070954;28;39220;-76
2021/03/02 06:33:28;;;;;;;104.40;41.27;;;;;;;;;;5068626;28;37104;-76
2021/03/02 06:35:55;;;;;;;119.73;43.63;;;;;;;;;;5073480;28;38723;-77
2021/03/02 06:38:28;;;;;;;100.03;39.40;;;;;;;;;;5079284;28;38445;-79
2021/03/02 06:40:55;;;;;;;86.37;34.63;;;;;;;;;;5083443;28;38503;-79
2021/03/02 06:43:31;;;;;;;84.57;38.33;;;;;;;;;;5072668;28;37482;-76
2021/03/02 06:45:58;;;;;;;85.67;36.87;;;;;;;;;;5095762;27;39143;-76
2021/03/02 06:48:24;;;;;;;105.70;41.40;;;;;;;;;;5076418;28;38691;-76
2021/03/02 06:50:50;;;;;;;88.03;37.90;;;;;;;;;;5092489;27;39010;-77
2021/03/02 06:53:17;;;;;;;88.30;37.37;;;;;;;;;;5077736;28;37922;-78
2021/03/02 06:55:43;;;;;;;91.30;38.23;;;;;;;;;;5080826;28;39938;-77
2021/03/02 06:58:14;;;;;;;86.37;37.73;;;;;;;;;;5080978;28;39184;-77
2021/03/02 07:00:44;;;;;;;98.00;40.73;;;;;;;;;;5076811;28;39064;-75
2021/03/02 07:03:23;;;;;;;108.43;43.37;;;;;;;;;;5080309;28;37307;-75
2021/03/02 07:05:50;;;;;;;118.17;44.30;;;;;;;;;;5080149;28;39880;-75
2021/03/02 07:08:17;;;;;;;101.47;40.90;;;;;;;;;;5085451;28;38333;-75
2021/03/02 07:10:49;;;;;;;94.27;40.43;;;;;;;;;;5082414;28;39279;-74
2021/03/02 07:13:15;;;;;;;107.90;45.30;;;;;;;;;;5084306;28;36944;-74
2021/03/02 07:15:44;;;;;;;94.23;41.13;;;;;;;;;;5085190;28;39810;-75
2021/03/02 07:18:13;;;;;;;97.97;41.60;;;;;;;;;;5079185;28;38925;-75
2021/03/02 07:20:40;;;;;;;97.63;40.93;;;;;;;;;;5063406;28;38546;-74
2021/03/02 07:23:06;;;;;;;106.67;42.00;;;;;;;;;;5058985;28;37779;-74
2021/03/02 07:25:36;;;;;;;105.70;44.60;;;;;;;;;;5076892;28;38612;-74
2021/03/02 07:28:05;;;;;;;100.80;43.60;;;;;;;;;;5083720;28;38861;-74
2021/03/02 07:30:32;;;;;;;109.57;46.80;;;;;;;;;;5086862;28;39075;-74
2021/03/02 07:32:58;;;;;;;113.53;46.83;;;;;;;;;;5084335;28;37900;-74
2021/03/02 07:35:25;;;;;;;98.37;41.27;;;;;;;;;;5087784;28;38625;-75
2021/03/02 07:37:52;;;;;;;97.23;43.43;;;;;;;;;;5082100;28;38777;-75
2021/03/02 07:40:19;;;;;;;99.20;42.90;;;;;;;;;;5080013;28;39097;-75
2021/03/02 07:42:46;;;;;;;101.67;43.40;;;;;;;;;;5080866;28;37870;-75
2021/03/02 07:45:12;;;;;;;96.87;41.10;;;;;;;;;;5076557;27;40377;-75
2021/03/02 07:47:57;;;;;;;98.30;43.00;;;;;;;;;;5067780;28;38112;-75
2021/03/02 07:50:26;;;;;;;108.50;44.23;;;;;;;;;;5060633;28;37966;-75
2021/03/02 07:53:11;;;;;;;92.00;43.23;;;;;;;;;;5070910;28;37546;-76
2021/03/02 07:55:37;;;;;;;107.80;43.03;;;;;;;;;;5084961;28;47007;-79
2021/03/02 07:58:17;;;;;;;100.03;42.87;;;;;;;;;;5074382;28;38301;-75
2021/03/02 08:00:48;;;;;;;97.53;41.40;;;;;;;;;;5073544;28;39458;-74
2021/03/02 08:03:17;;;;;;;92.07;42.03;;;;;;;;;;5067631;28;37714;-74
2021/03/02 08:05:44;;;;;;;92.77;42.23;;;;;;;;;;5062064;28;41943;-74
2021/03/02 08:08:25;;;;;;;87.93;40.97;;;;;;;;;;5068762;28;40505;-74
2021/03/02 08:10:55;;;;;;;89.10;41.03;;;;;;;;;;5062441;28;38442;-73
2021/03/02 08:13:41;;;;;;;81.93;39.80;;;;;;;;;;5063500;28;37190;-74
2021/03/02 08:16:08;;;;;;;85.10;38.70;;;;;;;;;;5068535;28;41070;-74
2021/03/02 08:18:38;;;;;;;80.53;38.60;;;;;;;;;;5063234;28;38886;-76
2021/03/02 08:21:18;;;;;;;86.53;41.83;;;;;;;;;;5064676;28;37887;-75
2021/03/02 08:23:50;;;;;;;101.33;41.60;;;;;;;;;;5063154;28;37192;-74
2021/03/02 08:26:27;;;;;;;79.32;38.63;;;;;;;;;;5060346;28;38723;-75
2021/03/02 08:29:03;;;;;;;74.63;38.07;;;;;;;;;;5060719;28;39109;-74
2021/03/02 08:31:29;;;;;;;71.03;35.93;;;;;;;;;;5058403;28;47450;-76
2021/03/02 08:33:56;;;;;;;77.77;38.13;;;;;;;;;;5067249;27;37984;-77
2021/03/02 08:36:23;;;;;;;73.97;36.97;;;;;;;;;;5060636;28;39242;-79
2021/03/02 08:38:50;;;;;;;72.30;37.07;;;;;;;;;;5067098;28;39390;-76
2021/03/02 08:41:32;;;;;;;69.83;37.10;;;;;;;;;;5083922;28;39299;-76
2021/03/02 08:43:59;;;;;;;76.00;35.07;;;;;;;;;;5074058;28;37124;-79
2021/03/02 08:46:26;;;;;;;69.40;34.10;;;;;;;;;;5082099;28;37406;-79
2021/03/02 08:48:53;;;;;;;66.90;34.80;;;;;;;;;;5080462;28;38457;-76
2021/03/02 08:51:21;;;;;;;65.20;32.60;;;;;;;;;;5077493;28;38612;-78
2021/03/02 08:53:50;;;;;;;68.30;33.47;;;;;;;;;;5075797;27;38221;-76
2021/03/02 08:56:20;;;;;;;70.37;34.80;;;;;;;;;;5075527;28;37942;-77
2021/03/02 08:58:51;;;;;;;64.57;33.60;;;;;;;;;;5066743;28;37593;-77
2021/03/02 09:01:24;;;;;;;56.13;31.70;;;;;;;;;;5072585;28;37074;-76
2021/03/02 09:03:53;;;;;;;63.05;33.97;;;;;;;;;;5056454;28;37914;-76
2021/03/02 09:06:20;;;;;;;68.83;33.53;;;;;;;;;;5053135;28;37524;-77
2021/03/02 09:08:49;;;;;;;59.57;31.57;;;;;;;;;;5060697;27;39119;-76
2021/03/02 09:11:16;;;;;;;57.00;31.53;;;;;;;;;;5064146;28;39066;-76
2021/03/02 09:13:43;;;;;;;60.67;34.20;;;;;;;;;;5061693;28;36988;-82
2021/03/02 09:16:27;;;;;;;60.53;32.27;;;;;;;;;;5062638;28;41992;-76
2021/03/02 09:19:00;;;;;;;60.37;33.10;;;;;;;;;;5061176;28;38519;-76
2021/03/02 09:21:26;;;;;;;55.78;30.70;;;;;;;;;;5060774;28;36787;-78
2021/03/02 09:23:53;;;;;;;55.27;30.77;;;;;;;;;;5058548;28;37555;-77
2021/03/02 09:26:20;;;;;;;55.97;31.33;;;;;;;;;;5055712;28;38618;-77
2021/03/02 09:28:50;;;;;;;55.33;28.73;;;;;;;;;;5058370;28;39691;-76
2021/03/02 09:31:17;;;;;;;51.33;28.47;;;;;;;;;;5057292;28;39231;-76
2021/03/02 09:33:43;;;;;;;51.67;29.67;;;;;;;;;;5060621;28;36365;-77
2021/03/02 09:36:10;;;;;;;52.40;30.27;;;;;;;;;;5065619;28;42895;-78
2021/03/02 09:38:36;;;;;;;49.57;28.67;;;;;;;;;;5061094;28;38650;-77
2021/03/02 09:41:02;;;;;;;50.07;27.93;;;;;;;;;;5060737;28;38498;-78
2021/03/02 09:43:39;;;;;;;49.83;29.07;;;;;;;;;;5060430;28;36955;-80
2021/03/02 09:46:06;;;;;;;45.33;25.73;;;;;;;;;;5056902;28;40674;-78
2021/03/02 09:48:48;;;;;;;51.03;28.90;;;;;;;;;;5063689;28;38715;-77
2021/03/02 09:51:30;;;;;;;52.03;29.03;;;;;;;;;;5058885;28;37292;-78
2021/03/02 09:54:09;;;;;;;42.40;26.63;;;;;;;;;;5064734;28;36497;-79
2021/03/02 09:56:36;;;;;;;51.40;29.20;;;;;;;;;;5079664;28;48540;-78
2021/03/02 09:59:02;;;;;;;47.80;28.13;;;;;;;;;;5079647;28;38864;-77
2021/03/02 10:01:29;;;;;;;44.97;27.30;;;;;;;;;;5070807;28;38892;-77
2021/03/02 10:03:55;;;;;;;44.00;27.23;;;;;;;;;;5063719;28;35585;-78
2021/03/02 10:06:25;;;;;;;47.17;27.03;;;;;;;;;;5079210;28;38119;-79
2021/03/02 10:08:52;;;;;;;45.77;27.13;;;;;;;;;;5059514;28;37725;-78
2021/03/02 10:11:20;;;;;;;46.90;25.27;;;;;;;;;;5054981;28;37533;-77
2021/03/02 10:13:46;;;;;;;47.80;26.83;;;;;;;;;;5063411;28;35482;-80
2021/03/02 10:16:16;;;;;;;42.93;26.37;;;;;;;;;;5079634;27;39065;-78
2021/03/02 10:18:50;;;;;;;41.47;24.30;;;;;;;;;;5080827;28;38773;-79
2021/03/02 10:21:17;;;;;;;38.17;23.87;;;;;;;;;;5080007;28;37280;-77
2021/03/02 10:23:47;;;;;;;40.87;22.57;;;;;;;;;;5076930;28;36309;-77
2021/03/02 10:26:19;;;;;;;43.63;23.73;;;;;;;;;;5078105;28;37612;-76
2021/03/02 10:28:46;;;;;;;37.72;23.05;;;;;;;;;;5074153;28;37701;-79
2021/03/02 10:31:12;;;;;;;38.23;23.47;;;;;;;;;;5082304;27;38367;-77
2021/03/02 10:33:39;;;;;;;41.03;24.13;;;;;;;;;;5078360;28;36224;-77
2021/03/02 10:36:15;;;;;;;39.93;24.50;;;;;;;;;;5081451;28;38799;-77
2021/03/02 10:38:41;;;;;;;38.30;21.90;;;;;;;;;;5076254;28;39875;-75
2021/03/02 10:41:08;;;;;;;37.23;22.83;;;;;;;;;;5068481;28;38381;-76
2021/03/02 10:43:34;;;;;;;34.27;21.07;;;;;;;;;;5085115;28;37267;-75
2021/03/02 10:46:01;;;;;;;35.70;22.53;;;;;;;;;;5070330;28;39122;-81
2021/03/02 10:48:27;;;;;;;36.93;22.60;;;;;;;;;;5074274;28;44607;-76
2021/03/02 10:50:53;;;;;;;38.33;22.30;;;;;;;;;;5071638;28;38898;-76
2021/03/02 10:53:20;;;;;;;39.10;21.97;;;;;;;;;;5083455;28;37331;-76
2021/03/02 10:55:46;;;;;;;34.70;20.50;;;;;;;;;;5079482;28;38986;-77
2021/03/02 10:58:13;;;;;;;35.67;20.37;;;;;;;;;;5080393;28;41384;-77
2021/03/02 11:00:39;;;;;;;34.40;20.33;;;;;;;;;;5078113;28;38902;-77
2021/03/02 11:03:05;;;;;;;32.80;21.00;;;;;;;;;;5079254;28;39095;-76
2021/03/02 11:05:32;;;;;;;29.90;18.33;;;;;;;;;;5068573;28;40897;-76
2021/03/02 11:07:58;;;;;;;31.43;18.47;;;;;;;;;;5077858;28;40175;-78
2021/03/02 11:10:25;;;;;;;29.53;19.40;;;;;;;;;;5082217;28;39460;-77
2021/03/02 11:12:51;;;;;;;34.73;20.23;;;;;;;;;;5082594;28;38748;-76
2021/03/02 11:15:18;;;;;;;28.97;19.00;;;;;;;;;;5078508;28;38416;-76
2021/03/02 11:17:44;;;;;;;28.67;18.27;;;;;;;;;;5080423;28;37303;-77
2021/03/02 11:20:11;;;;;;;27.45;17.52;;;;;;;;;;5087481;28;37794;-76
2021/03/02 11:22:37;;;;;;;26.07;17.37;;;;;;;;;;5082494;28;37195;-76
2021/03/02 11:25:04;;;;;;;28.60;16.67;;;;;;;;;;5080238;28;39097;-76
2021/03/02 11:27:30;;;;;;;27.77;17.92;;;;;;;;;;5074970;28;48701;-76
2021/03/02 11:29:56;;;;;;;28.27;17.63;;;;;;;;;;5062138;28;38614;-77
2021/03/02 11:32:23;;;;;;;27.02;17.63;;;;;;;;;;5057929;28;37958;-77
2021/03/02 11:34:49;;;;;;;32.08;16.92;;;;;;;;;;5065289;28;39794;-77
2021/03/02 11:37:16;;;;;;;24.65;16.67;;;;;;;;;;5063070;28;41819;-78
2021/03/02 11:39:42;;;;;;;26.30;17.20;;;;;;;;;;5063422;28;39032;-77
2021/03/02 11:42:08;;;;;;;26.50;17.58;;;;;;;;;;5062404;28;38218;-76
2021/03/02 11:44:35;;;;;;;24.83;16.27;;;;;;;;;;5061978;28;39370;-77
2021/03/02 11:47:01;;;;;;;23.67;15.80;;;;;;;;;;5061764;28;38784;-78
2021/03/02 11:49:28;;;;;;;24.60;16.02;;;;;;;;;;5062051;28;49106;-76
2021/03/02 11:51:54;;;;;;;26.20;16.15;;;;;;;;;;5053442;28;36978;-76
2021/03/02 11:54:21;;;;;;;21.80;15.10;;;;;;;;;;5062645;27;39285;-77
2021/03/02 11:56:47;;;;;;;25.50;14.65;;;;;;;;;;5056849;28;38704;-77
2021/03/02 11:59:14;;;;;;;25.65;15.05;;;;;;;;;;5061170;28;38353;-76
2021/03/02 12:01:40;;;;;;;24.02;15.05;;;;;;;;;;5059216;28;37000;-78
2021/03/02 12:04:07;;;;;;;25.42;14.05;;;;;;;;;;5061744;28;38927;-75
2021/03/02 12:06:33;;;;;;;25.27;14.15;;;;;;;;;;5062577;28;38922;-75
2021/03/02 12:08:59;;;;;;;19.38;13.40;;;;;;;;;;5080964;28;38689;-75
2021/03/02 12:11:26;;;;;;;23.27;15.32;;;;;;;;;;5057856;28;38822;-76
2021/03/02 12:13:52;;;;;;;21.70;14.48;;;;;;;;;;5054646;28;40588;-78
2021/03/02 12:16:18;;;;;;;21.25;14.50;;;;;;;;;;5065866;28;39993;-76
2021/03/02 12:18:45;;;;;;;20.40;13.52;;;;;;;;;;5061090;28;39878;-76
2021/03/02 12:21:11;;;;;;;20.55;14.48;;;;;;;;;;5055357;28;37052;-75
2021/03/02 12:23:37;;;;;;;20.08;13.20;;;;;;;;;;5061883;28;39190;-75
2021/03/02 12:26:04;;;;;;;21.95;13.88;;;;;;;;;;5055776;28;39052;-76
2021/03/02 12:28:30;;;;;;;19.65;12.80;;;;;;;;;;5059653;28;38325;-76
2021/03/02 12:30:57;;;;;;;20.73;13.32;;;;;;;;;;5056863;28;37862;-76
2021/03/02 12:33:23;;;;;;;19.98;13.40;;;;;;;;;;5051462;28;40668;-76
2021/03/02 12:35:50;;;;;;;18.58;14.43;;;;;;;;;;5061766;28;39267;-78
2021/03/02 12:38:17;;;;;;;20.25;13.15;;;;;;;;;;5057208;28;38610;-76
2021/03/02 12:40:44;;;;;;;22.33;14.23;;;;;;;;;;5059478;28;37269;-76
2021/03/02 12:43:10;;;;;;;21.45;15.13;;;;;;;;;;5059741;28;39921;-76
2021/03/02 12:45:36;;;;;;;23.15;14.80;;;;;;;;;;5072643;28;38929;-75
2021/03/02 12:48:04;;;;;;;20.30;14.40;;;;;;;;;;5056366;28;37955;-76
2021/03/02 12:50:30;;;;;;;24.33;13.73;;;;;;;;;;5056923;28;37570;-75
2021/03/02 12:52:57;;;;;;;21.48;14.50;;;;;;;;;;5052817;28;40036;-76
2021/03/02 12:55:23;;;;;;;22.23;13.80;;;;;;;;;;5077046;28;39327;-75
2021/03/02 12:57:49;;;;;;;21.58;13.68;;;;;;;;;;5069152;28;39433;-74
2021/03/02 13:00:16;;;;;;;21.23;14.23;;;;;;;;;;5057406;28;36281;-75
2021/03/02 13:02:43;;;;;;;19.40;13.50;;;;;;;;;;5081015;28;37524;-76
2021/03/02 13:05:10;;;;;;;19.23;13.30;;;;;;;;;;5083600;28;38937;-75
2021/03/02 13:07:36;;;;;;;20.13;13.70;;;;;;;;;;5076943;28;38890;-76
2021/03/02 13:10:03;;;;;;;19.50;13.15;;;;;;;;;;5083913;27;37311;-75
2021/03/02 13:12:30;;;;;;;18.88;13.25;;;;;;;;;;5080078;28;48705;-75
2021/03/02 13:14:56;;;;;;;18.63;13.75;;;;;;;;;;5084761;28;39286;-75
2021/03/02 13:17:23;;;;;;;21.42;13.20;;;;;;;;;;5075657;28;38427;-76
2021/03/02 13:19:50;;;;;;;19.17;13.88;;;;;;;;;;5094964;27;37499;-77
2021/03/02 13:22:16;;;;;;;19.25;13.68;;;;;;;;;;5082068;27;38853;-75
2021/03/02 13:24:43;;;;;;;19.67;12.93;;;;;;;;;;5077224;28;38945;-76
2021/03/02 13:27:09;;;;;;;17.77;12.95;;;;;;;;;;5074529;28;38787;-77
2021/03/02 13:29:40;;;;;;;21.55;14.20;;;;;;;;;;5081463;28;37250;-77
2021/03/02 13:32:09;;;;;;;17.77;12.98;;;;;;;;;;5082579;28;39672;-76
2021/03/02 13:34:36;;;;;;;21.20;14.68;;;;;;;;;;5074661;28;39074;-77
2021/03/02 13:37:02;;;;;;;21.73;14.10;;;;;;;;;;5079615;28;38752;-79
2021/03/02 13:39:31;;;;;;;19.88;14.05;;;;;;;;;;5075095;28;37665;-76
2021/03/02 13:41:57;;;;;;;22.13;13.00;;;;;;;;;;5094631;27;40241;-75
2021/03/02 13:44:24;;;;;;;18.75;13.60;;;;;;;;;;5085009;27;39852;-75
2021/03/02 13:46:51;;;;;;;21.55;13.55;;;;;;;;;;5083205;28;39046;-75
2021/03/02 13:49:18;;;;;;;19.13;13.20;;;;;;;;;;5077773;28;36934;-77
2021/03/02 13:51:45;;;;;;;20.63;13.90;;;;;;;;;;5074282;28;39375;-76
2021/03/02 13:54:12;;;;;;;18.50;13.48;;;;;;;;;;5082893;28;38812;-76
2021/03/02 13:56:39;;;;;;;18.98;13.13;;;;;;;;;;5079642;28;38322;-75
2021/03/02 13:59:05;;;;;;;17.38;13.60;;;;;;;;;;5079179;28;38552;-74
2021/03/02 14:01:35;;;;;;;22.67;14.15;;;;;;;;;;5079132;28;38878;-74
2021/03/02 14:04:05;;;;;;;20.55;13.43;;;;;;;;;;5083548;28;38765;-74
2021/03/02 14:06:34;;;;;;;23.65;14.23;;;;;;;;;;5080971;28;47212;-75
2021/03/02 14:09:01;;;;;;;21.58;14.15;;;;;;;;;;5074023;28;37168;-75
2021/03/02 14:11:28;;;;;;;22.05;14.52;;;;;;;;;;5080956;28;46269;-75
2021/03/02 14:13:56;;;;;;;21.08;13.65;;;;;;;;;;5076958;28;38325;-75
2021/03/02 14:16:26;;;;;;;19.60;13.27;;;;;;;;;;5079716;27;39121;-75
2021/03/02 14:18:56;;;;;;;17.65;13.13;;;;;;;;;;5076460;28;37929;-75
2021/03/02 14:21:24;;;;;;;20.88;14.63;;;;;;;;;;5074669;27;39793;-76